Item Display Status Humidity-temperature Sensor

Elevation Above Sea Level: 3 m

 

Deployed Sensor

  • Serial Number: 61276338
  • NDBC Property Number: 37955
  • Start Date: 10/26/2017 (09:13:14 Z)
  • End Date: 7/1/2019 (15:35:00 Z)
Relative Humidity [%]     6 entries per hour
Showing data from 11/13/2018 (16:20:00 Z) to 11/12/2018 (00:00:01 Z)
Previous Next [ Day | 3-Days | 7-Days ]
First Last
Prev [ Day | 3-Days | 7-Days ] Next
First Last

Start Time:     :
End Time:     :     
Time (in GMT) :00 :50 :40 :30 :20 :10
Previous Next [ Day | 3-Days | 7-Days ]
First Last
Prev [ Day | 3-Days | 7-Days ] Next
First Last


123 => good data
MM => data is determined as missing
-- => data not received/configured
Back to Top Back to Top
11/13/2018 17:00 to 16:10 -- -- -- -- 74.99 75.75
11/13/2018 16:00 to 15:10 78.32 76.85 76.79 75.71 72.34 75.71
11/13/2018 15:00 to 14:10 75.24 74.21 74.40 74.54 75.01 74.03
11/13/2018 14:00 to 13:10 75.77 76.58 75.19 75.26 73.54 73.50
11/13/2018 13:00 to 12:10 72.95 72.97 74.60 73.64 74.28 77.22
11/13/2018 12:00 to 11:10 76.64 75.87 74.91 73.77 74.40 73.56
11/13/2018 11:00 to 10:10 74.46 75.91 76.36 76.01 75.71 76.48
11/13/2018 10:00 to 9:10 75.28 78.32 75.75 75.91 73.97 75.38
11/13/2018 09:00 to 8:10 77.40 74.44 74.01 75.13 74.93 75.24
11/13/2018 08:00 to 7:10 73.68 74.15 72.97 76.54 74.64 74.54
11/13/2018 07:00 to 6:10 74.15 74.17 75.58 75.19 74.68 74.01
11/13/2018 06:00 to 5:10 74.21 75.11 75.97 76.77 77.18 77.67
11/13/2018 05:00 to 4:10 76.48 77.73 78.79 78.03 78.56 80.22
11/13/2018 04:00 to 3:10 78.11 77.73 77.93 74.68 77.67 74.32
11/13/2018 03:00 to 2:10 77.85 76.48 75.66 75.32 74.46 74.93
11/13/2018 02:00 to 1:10 74.75 76.73 77.58 75.87 76.71 77.79
11/13/2018 01:00 to 0:10 78.40 78.58 78.24 77.87 78.07 76.30
11/13/2018 00:00 to 23:10 75.91 74.56 74.46 76.73 76.83 78.30
11/12/2018 23:00 to 22:10 76.42 77.69 77.15 77.18 77.50 77.73
11/12/2018 22:00 to 21:10 77.64 78.65 78.87 78.07 77.40 78.99
11/12/2018 21:00 to 20:10 79.28 78.93 79.14 80.32 79.73 79.28
11/12/2018 20:00 to 19:10 79.56 79.77 79.26 78.18 81.59 80.77
11/12/2018 19:00 to 18:10 81.69 80.20 80.01 78.79 78.93 79.24
11/12/2018 18:00 to 17:10 79.97 79.71 79.14 83.30 87.02 89.81
11/12/2018 17:00 to 16:10 81.79 80.67 81.59 82.52 81.99 81.46
11/12/2018 16:00 to 15:10 81.24 80.58 80.58 80.81 80.18 80.01
11/12/2018 15:00 to 14:10 80.09 80.03 79.40 78.40 76.26 77.07
11/12/2018 14:00 to 13:10 80.32 80.52 80.69 82.03 81.69 80.30
11/12/2018 13:00 to 12:10 81.40 80.56 80.73 80.81 81.79 81.28
11/12/2018 12:00 to 11:10 81.46 81.34 79.85 83.97 83.08 83.01
11/12/2018 11:00 to 10:10 85.83 86.38 87.34 85.55 84.14 82.59
11/12/2018 10:00 to 9:10 82.16 85.30 85.71 83.01 82.61 83.71
11/12/2018 09:00 to 8:10 84.59 85.67 83.18 82.75 83.48 84.36
11/12/2018 08:00 to 7:10 83.71 82.67 79.65 79.79 81.38 81.77
11/12/2018 07:00 to 6:10 81.03 81.50 81.54 82.01 80.26 80.42
11/12/2018 06:00 to 5:10 80.50 80.32 79.07 79.71 81.40 80.14
11/12/2018 05:00 to 4:10 80.48 81.75 82.08 81.22 82.63 82.08
11/12/2018 04:00 to 3:10 81.61 81.69 80.58 80.65 84.40 83.34
11/12/2018 03:00 to 2:10 82.36 82.40 83.16 82.20 82.93 82.34
11/12/2018 02:00 to 1:10 81.85 81.67 82.97 81.85 83.08 82.91
11/12/2018 01:00 to 0:10 84.50 83.89 81.73 81.28 81.67 82.10

 

 

 

Air Temperature [°C]     6 entries per hour
Showing data from 11/13/2018 (16:20:00 Z) to 11/12/2018 (00:00:01 Z)
Previous Next [ Day | 3-Days | 7-Days ]
First Last
Prev [ Day | 3-Days | 7-Days ] Next
First Last

Start Time:     :
End Time:     :     
Time (in GMT) :00 :50 :40 :30 :20 :10
Previous Next [ Day | 3-Days | 7-Days ]
First Last
Prev [ Day | 3-Days | 7-Days ] Next
First Last


123 => good data
MM => data is determined as missing
-- => data not received/configured
Back to Top Back to Top
11/13/2018 17:00 to 16:10 -- -- -- -- 24.18 24.20
11/13/2018 16:00 to 15:10 24.31 24.10 24.31 24.56 24.52 24.42
11/13/2018 15:00 to 14:10 24.49 24.34 24.30 24.30 24.39 24.23
11/13/2018 14:00 to 13:10 24.23 24.06 24.20 24.23 24.12 24.10
11/13/2018 13:00 to 12:10 24.12 24.11 24.19 24.12 24.10 24.10
11/13/2018 12:00 to 11:10 24.11 24.16 24.30 24.09 24.15 24.23
11/13/2018 11:00 to 10:10 24.08 24.13 24.17 24.13 24.06 24.12
11/13/2018 10:00 to 9:10 24.16 24.25 24.08 24.06 24.06 23.98
11/13/2018 09:00 to 8:10 24.34 24.20 24.18 24.18 24.24 24.19
11/13/2018 08:00 to 7:10 24.24 24.21 24.18 24.23 24.13 24.24
11/13/2018 07:00 to 6:10 24.26 24.27 24.23 24.34 24.30 24.40
11/13/2018 06:00 to 5:10 24.22 24.29 24.26 24.28 24.36 24.31
11/13/2018 05:00 to 4:10 24.39 24.31 24.27 24.35 24.34 24.28
11/13/2018 04:00 to 3:10 24.31 24.30 24.41 24.46 24.46 24.48
11/13/2018 03:00 to 2:10 24.45 24.38 24.47 24.58 24.47 24.72
11/13/2018 02:00 to 1:10 24.55 24.52 24.62 24.43 24.46 24.45
11/13/2018 01:00 to 0:10 24.49 24.47 24.61 24.59 24.82 24.78
11/13/2018 00:00 to 23:10 24.85 24.85 24.88 24.84 24.83 24.77
11/12/2018 23:00 to 22:10 24.85 24.95 24.83 24.89 24.86 24.82
11/12/2018 22:00 to 21:10 24.78 24.75 24.81 24.90 24.85 24.85
11/12/2018 21:00 to 20:10 24.75 24.81 24.79 24.77 24.80 24.79
11/12/2018 20:00 to 19:10 24.75 24.75 24.70 24.72 24.67 24.56
11/12/2018 19:00 to 18:10 24.60 24.62 24.67 24.62 24.71 24.69
11/12/2018 18:00 to 17:10 24.70 24.65 24.53 24.07 23.61 23.39
11/12/2018 17:00 to 16:10 24.44 24.41 24.32 24.29 24.46 24.52
11/12/2018 16:00 to 15:10 24.56 24.59 24.55 24.67 24.48 24.42
11/12/2018 15:00 to 14:10 24.49 24.43 24.49 24.64 24.59 24.49
11/12/2018 14:00 to 13:10 24.45 24.47 24.45 24.43 24.36 24.23
11/12/2018 13:00 to 12:10 24.33 24.40 24.33 24.23 24.42 24.43
11/12/2018 12:00 to 11:10 24.52 24.49 24.39 24.35 24.39 24.22
11/12/2018 11:00 to 10:10 24.01 23.67 23.45 23.86 24.04 23.96
11/12/2018 10:00 to 9:10 23.80 23.50 24.08 24.18 24.14 24.09
11/12/2018 09:00 to 8:10 24.10 24.05 24.42 24.35 24.30 24.55
11/12/2018 08:00 to 7:10 24.51 24.69 24.62 24.63 24.53 24.55
11/12/2018 07:00 to 6:10 24.59 24.67 24.63 24.68 24.73 24.67
11/12/2018 06:00 to 5:10 24.58 24.71 24.59 24.68 24.62 24.65
11/12/2018 05:00 to 4:10 24.66 24.73 24.74 24.77 24.78 24.60
11/12/2018 04:00 to 3:10 24.60 24.75 24.65 24.73 24.60 24.73
11/12/2018 03:00 to 2:10 24.56 24.55 24.64 24.66 24.67 24.59
11/12/2018 02:00 to 1:10 24.53 24.48 24.58 24.48 24.61 24.47
11/12/2018 01:00 to 0:10 24.30 24.42 24.51 24.54 24.74 24.60